Terminal Aerodrome Forecast
Issued by NWS

Home | Current Version | Previous Version | Graphics & Text | Print | Product List | Glossary On
Versions: 1 2 3 4 5 6 7 8 9 10 11 12 13 14 15 16 17 18 19 20
545
FTUS43 KBIS 222327
TAFDIK
TAF
KDIK 222327Z 2300/2324 17008KT P6SM SCT250
     FM230600 20005KT P6SM BKN200
     FM230900 27004KT P6SM BKN150
     FM231200 32005KT P6SM VCSH OVC100
     FM231800 33007KT P6SM -RA OVC045=

USA.gov is the U.S. government's official web portal to all federal, state and local government web resources and services.